Strona główna
METAR-TAF:

METAR-TAF

Lotnisko :

Port lotniczy Detroit

Detroit, Michigan, Stany Zjednoczone

Szerokość geograficzna: 42-13-53N, Długość geograficzna: 083-19-51W, wysokość: 194 m

Aktualna obserwacja pogody

Raport powstał 1 godzina i 4 minut temu, godzina 06:53 UTC
Wiatr 6 kt od zachodnio-północny zachód
Temperatura -10°C
Wilgotność 79%
Ciśnienie 1029 hPa
Widzialność: 16.1 km
bezchmurnie

METAR: KDTW 200653Z 30006KT 10SM CLR M10/M13 A3039 RMK AO2 SLP304 T11001128 $

czas: 02:57 (07:57 UTC)

Prognoza

Raport powstał 2 godziny i 19 minut temu, godzina 05:38 UTC
Prognoza ważna od 20 godzina 06 UTC do 21 godzina 12 UTC
Wiatr 6 kt od północny zachód
Widzialność: 10 km
Mało chmury na wysokości 25000 ft
Od 20 godzina 2100 UTC
Wiatr 4 kt od północny zachód
Widzialność: 10 km
Mało chmury na wysokości 3000 ft
Od 21 godzina 0100 UTC
Wiatr 3 kt od północny zachód
Widzialność: 10 km
Rozproszone chmury na wysokości 3000 ft

TAF: KDTW 200538Z 2006/2112 31006KT P6SM FEW250 FM202100 31004KT P6SM FEW030 FM210100 31003KT P6SM SCT030

Obserwacja i prognoza pogody dla ponad 4000 lotnisk (raport METAR i TAF).

Dostępne stacje oznaczono żółtymi i czerwonymi punktami na mapie.

Najedź kursorem aby zobaczyć nazwę stacji.

Kliknij aby zobaczyć obserwacje i prognozy pogody.

Aby zmienić mapę: kliknij na zielony przycisk z czarnym krzyżykiem, aby powiększyć; na zielony przycisk z myślnikiem, aby pomniejszyć; na zielone strzałki, aby przejść do map sąsiednich.


METAR-TAF: